createdAt,value
2023-04-02T00:00:53.801Z,48.18
2023-04-02T00:01:53.726Z,49.63
2023-04-02T00:02:53.628Z,49.47
2023-04-02T00:09:21.999Z,47.53
2023-04-02T00:10:21.947Z,47.86
2023-04-02T00:11:21.969Z,49.31
2023-04-02T00:12:21.897Z,48.50
2023-04-02T00:33:27.894Z,49.79
2023-04-02T00:34:27.873Z,49.79
2023-04-02T00:35:27.778Z,48.82
2023-04-02T00:36:27.770Z,49.15
2023-04-02T00:37:27.770Z,48.66
2023-04-02T00:38:27.756Z,48.82
2023-04-02T00:39:27.684Z,48.98
2023-04-02T00:40:27.747Z,49.79
2023-04-02T00:41:27.770Z,48.98
2023-04-02T00:42:27.681Z,49.63
2023-04-02T00:43:27.700Z,49.63
2023-04-02T00:44:27.662Z,48.50
2023-04-02T00:45:27.613Z,48.98
2023-04-02T00:46:27.711Z,48.50
2023-04-02T00:47:27.669Z,49.95
2023-04-02T00:48:27.640Z,50.43
2023-04-02T00:49:27.600Z,48.50
2023-04-02T00:50:27.682Z,49.79
2023-04-02T00:51:27.584Z,49.31
2023-04-02T00:52:27.652Z,49.47
2023-04-02T00:53:27.531Z,48.98
2023-04-02T00:54:27.542Z,48.02
2023-04-02T00:55:27.524Z,48.50
2023-04-02T00:56:27.510Z,49.47
2023-04-02T00:57:27.598Z,49.15
2023-04-02T00:58:27.504Z,49.79
2023-04-02T00:59:27.458Z,48.98
2023-04-02T01:00:27.463Z,48.98
2023-04-02T01:01:27.572Z,50.27
2023-04-02T01:02:27.494Z,49.79
2023-04-02T01:03:28.758Z,49.63
2023-04-02T01:04:28.562Z,48.98
2023-04-02T01:05:28.576Z,49.47
2023-04-02T01:06:28.596Z,49.47
2023-04-02T01:07:28.573Z,48.98
2023-04-02T01:08:28.503Z,50.11
2023-04-02T01:09:28.547Z,51.24
2023-04-02T01:10:28.568Z,50.27
2023-04-02T01:11:28.532Z,50.27
2023-04-02T01:12:28.557Z,49.47
2023-04-02T01:13:28.536Z,49.15
2023-04-02T01:14:28.492Z,48.98
2023-04-02T01:15:28.432Z,51.24
2023-04-02T01:16:28.538Z,50.43
2023-04-02T01:17:28.512Z,48.50
2023-04-02T01:18:28.454Z,48.66
2023-04-02T01:19:28.427Z,49.63
2023-04-02T01:20:28.463Z,49.15
2023-04-02T01:21:28.375Z,47.86
2023-04-02T01:22:28.336Z,48.34
2023-04-02T01:23:28.413Z,48.98
2023-04-02T01:24:28.328Z,48.50
2023-04-02T01:25:28.356Z,48.18
2023-04-02T01:26:28.314Z,48.18
2023-04-02T01:27:28.314Z,47.86
2023-04-02T01:28:28.439Z,49.15
2023-04-02T01:29:28.447Z,49.63
2023-04-02T01:30:28.236Z,49.31
2023-04-02T01:31:28.240Z,48.98
2023-04-02T01:32:28.295Z,47.86
2023-04-02T01:33:28.270Z,49.47
2023-04-02T01:34:28.196Z,50.11
2023-04-02T01:35:28.160Z,50.11
2023-04-02T01:36:28.158Z,50.92
2023-04-02T01:37:28.144Z,49.31
2023-04-02T01:38:28.194Z,50.43
2023-04-02T01:39:28.113Z,48.34
2023-04-02T01:40:28.144Z,47.70
2023-04-02T01:41:28.100Z,49.31
2023-04-02T01:42:28.103Z,48.82
2023-04-02T01:43:28.079Z,49.95
2023-04-02T01:44:28.098Z,49.79
2023-04-02T01:45:28.049Z,48.98
2023-04-02T01:46:28.092Z,50.43
2023-04-02T01:47:28.044Z,48.18
2023-04-02T01:48:28.049Z,48.50
2023-04-02T01:49:28.036Z,48.18
2023-04-02T01:50:29.010Z,49.31
2023-04-02T01:51:27.992Z,49.15
2023-04-02T01:52:27.961Z,49.47
2023-04-02T01:53:27.976Z,48.82
2023-04-02T01:54:27.945Z,51.40
2023-04-02T01:55:27.976Z,49.95
2023-04-02T01:56:27.939Z,51.88
2023-04-02T01:57:27.946Z,50.11
2023-04-02T01:58:27.906Z,48.98
2023-04-02T01:59:28.070Z,48.50
2023-04-02T02:00:28.021Z,48.18
2023-04-02T02:01:27.881Z,48.66
2023-04-02T02:02:27.935Z,48.82
2023-04-02T02:03:27.845Z,50.11
2023-04-02T02:04:27.870Z,49.31
2023-04-02T02:05:27.823Z,48.82
2023-04-02T02:06:27.844Z,48.50
2023-04-02T02:07:27.821Z,48.50
2023-04-02T02:08:27.804Z,49.47
2023-04-02T02:09:27.782Z,49.15
2023-04-02T02:10:27.773Z,49.63
2023-04-02T02:11:27.794Z,49.63
2023-04-02T02:12:27.758Z,48.02
2023-04-02T02:13:27.750Z,50.76
2023-04-02T02:14:27.739Z,50.43
2023-04-02T02:15:28.097Z,49.31
2023-04-02T02:16:27.773Z,50.11
2023-04-02T02:17:27.774Z,48.98
2023-04-02T02:18:27.712Z,51.72
2023-04-02T02:19:27.672Z,51.08
2023-04-02T02:20:27.672Z,48.98
2023-04-02T02:21:27.716Z,47.86
2023-04-02T02:22:27.650Z,48.66
2023-04-02T02:23:27.632Z,48.82
2023-04-02T02:24:27.917Z,49.31
2023-04-02T02:25:27.625Z,47.86
2023-04-02T02:26:27.596Z,47.86
2023-04-02T02:27:27.628Z,49.15
2023-04-02T02:28:27.570Z,49.47
2023-04-02T02:29:27.564Z,48.02
2023-04-02T02:30:27.558Z,48.34
2023-04-02T02:31:27.542Z,48.02
2023-04-02T02:32:27.593Z,48.18
2023-04-02T02:33:27.534Z,49.15
2023-04-02T02:34:27.507Z,48.34
2023-04-02T02:35:27.483Z,47.86
2023-04-02T02:36:27.544Z,49.95
2023-04-02T02:37:27.466Z,49.95
2023-04-02T02:38:27.481Z,48.34
2023-04-02T02:39:27.483Z,50.11
2023-04-02T02:40:27.442Z,48.66
2023-04-02T02:41:27.443Z,49.15
2023-04-02T02:42:27.420Z,48.98
2023-04-02T02:43:27.470Z,49.79
2023-04-02T02:44:27.424Z,49.47
2023-04-02T02:45:27.374Z,49.79
2023-04-02T02:46:27.403Z,51.08
2023-04-02T02:47:27.410Z,48.82
2023-04-02T02:48:27.397Z,48.66
2023-04-02T02:49:27.339Z,50.43
2023-04-02T02:50:27.317Z,50.60
2023-04-02T02:51:27.341Z,50.11
2023-04-02T02:52:27.291Z,48.82
2023-04-02T02:53:27.291Z,49.15
2023-04-02T02:54:27.297Z,48.82
2023-04-02T02:55:27.282Z,48.98
2023-04-02T02:56:27.262Z,49.95
2023-04-02T02:57:27.258Z,48.50
2023-04-02T02:58:27.232Z,49.79
2023-04-02T02:59:27.291Z,50.11
2023-04-02T03:00:27.216Z,47.86
2023-04-02T03:01:27.302Z,49.63
2023-04-02T03:02:27.248Z,49.47
2023-04-02T03:03:27.250Z,49.47
2023-04-02T03:04:27.207Z,50.11
2023-04-02T03:05:27.174Z,49.79
2023-04-02T03:06:27.148Z,49.95
2023-04-02T03:07:27.166Z,50.27
2023-04-02T03:08:27.122Z,48.82
2023-04-02T03:09:27.400Z,49.95
2023-04-02T03:10:27.776Z,49.63
2023-04-02T03:11:27.101Z,50.27
2023-04-02T03:12:27.079Z,50.27
2023-04-02T03:13:27.051Z,49.79
2023-04-02T03:14:27.053Z,49.79
2023-04-02T03:15:27.071Z,50.11
2023-04-02T03:16:27.170Z,49.63
2023-04-02T03:17:27.036Z,48.66
2023-04-02T03:18:27.013Z,49.95
2023-04-02T03:19:27.595Z,49.47
2023-04-02T03:20:27.006Z,49.15
2023-04-02T03:21:26.974Z,50.76
2023-04-02T03:22:26.969Z,50.11
2023-04-02T03:23:26.947Z,49.47
2023-04-02T03:24:26.934Z,49.79
2023-04-02T03:25:26.954Z,49.95
2023-04-02T03:26:26.931Z,49.63
2023-04-02T03:27:26.897Z,48.98
2023-04-02T03:28:26.916Z,49.31
2023-04-02T03:29:26.884Z,48.98
2023-04-02T03:30:26.929Z,50.60
2023-04-02T03:31:26.919Z,50.27
2023-04-02T03:32:26.899Z,49.63
2023-04-02T03:33:26.837Z,49.47
2023-04-02T03:34:26.846Z,49.95
2023-04-02T03:35:26.848Z,50.27
2023-04-02T03:36:26.803Z,48.98
2023-04-02T03:37:26.793Z,50.11
2023-04-02T03:38:26.779Z,49.95
2023-04-02T03:39:26.823Z,50.27
2023-04-02T03:40:26.765Z,50.43
2023-04-02T03:41:26.758Z,50.60
2023-04-02T03:42:26.748Z,49.47
2023-04-02T03:43:26.728Z,49.95
2023-04-02T03:44:26.729Z,49.31
2023-04-02T03:45:26.695Z,50.76
2023-04-02T03:46:26.740Z,48.66
2023-04-02T03:47:26.741Z,48.50
2023-04-02T03:48:26.676Z,49.95
2023-04-02T03:49:26.655Z,49.47
2023-04-02T03:50:26.667Z,49.79
2023-04-02T03:51:26.652Z,50.11
2023-04-02T03:52:26.676Z,50.43
2023-04-02T03:53:26.650Z,51.08
2023-04-02T03:54:26.685Z,51.56
2023-04-02T03:55:26.650Z,51.24
2023-04-02T03:56:26.686Z,50.43
2023-04-02T03:57:26.605Z,51.08
2023-04-02T03:58:26.556Z,49.31
2023-04-02T03:59:26.548Z,50.43
2023-04-02T04:00:26.526Z,50.11
2023-04-02T04:01:26.564Z,50.76
2023-04-02T04:02:26.626Z,52.21
2023-04-02T04:03:26.484Z,51.08
2023-04-02T04:04:26.538Z,50.60
2023-04-02T04:05:26.482Z,51.08
2023-04-02T04:06:26.460Z,49.31
2023-04-02T04:07:26.486Z,49.79
2023-04-02T04:08:26.428Z,50.43
2023-04-02T04:09:26.435Z,52.05
2023-04-02T04:10:26.430Z,51.24
2023-04-02T04:11:26.448Z,49.95
2023-04-02T04:12:26.437Z,50.27
2023-04-02T04:13:26.405Z,50.60
2023-04-02T04:14:26.377Z,50.11
2023-04-02T04:15:26.360Z,50.60
2023-04-02T04:16:26.414Z,52.21
2023-04-02T04:17:26.362Z,52.05
2023-04-02T04:18:26.320Z,51.88
2023-04-02T04:19:26.330Z,50.43
2023-04-02T04:20:26.328Z,50.76
2023-04-02T04:21:26.314Z,52.53
2023-04-02T04:22:26.341Z,50.92
2023-04-02T04:23:26.265Z,51.40
2023-04-02T04:24:26.276Z,52.69
2023-04-02T04:25:26.237Z,51.40
2023-04-02T04:26:26.234Z,52.21
2023-04-02T04:27:26.243Z,52.05
2023-04-02T04:28:26.209Z,51.24
2023-04-02T04:29:26.193Z,52.37
2023-04-02T04:30:26.189Z,50.76
2023-04-02T04:31:26.242Z,52.69
2023-04-02T04:32:26.181Z,50.11
2023-04-02T04:33:26.183Z,51.08
2023-04-02T04:34:26.154Z,50.92
2023-04-02T04:35:26.146Z,53.17
2023-04-02T04:36:26.106Z,51.72
2023-04-02T04:37:27.096Z,52.69
2023-04-02T04:38:26.122Z,51.56
2023-04-02T04:39:26.074Z,50.60
2023-04-02T04:40:26.064Z,52.37
2023-04-02T04:41:26.066Z,51.72
2023-04-02T04:42:26.042Z,53.33
2023-04-02T04:43:26.096Z,52.37
2023-04-02T04:44:26.035Z,51.56
2023-04-02T04:45:26.009Z,51.88
2023-04-02T04:46:26.076Z,52.05
2023-04-02T04:47:26.019Z,51.08
2023-04-02T04:48:25.981Z,51.24
2023-04-02T04:49:25.995Z,52.21
2023-04-02T04:50:25.947Z,51.40
2023-04-02T04:51:25.938Z,52.21
2023-04-02T04:52:25.945Z,53.33
2023-04-02T04:53:25.925Z,51.72
2023-04-02T04:54:25.945Z,54.62
2023-04-02T04:55:25.900Z,51.56
2023-04-02T04:56:25.884Z,53.01
2023-04-02T04:57:25.892Z,51.08
2023-04-02T04:58:25.874Z,51.88
2023-04-02T04:59:25.889Z,51.56
2023-04-02T05:00:25.844Z,53.01
2023-04-02T05:01:25.843Z,50.60
2023-04-02T05:02:25.816Z,50.11
2023-04-02T05:03:25.818Z,51.72
2023-04-02T05:04:25.822Z,53.17
2023-04-02T05:05:25.804Z,51.40
2023-04-02T05:06:25.771Z,53.17
2023-04-02T05:07:25.767Z,52.21
2023-04-02T05:08:25.750Z,51.08
2023-04-02T05:09:25.899Z,51.56
2023-04-02T05:10:25.736Z,51.08
2023-04-02T05:11:25.715Z,52.53
2023-04-02T05:12:25.696Z,51.56
2023-04-02T05:13:25.699Z,52.05
2023-04-02T05:14:25.679Z,52.69
2023-04-02T05:15:25.704Z,51.40
2023-04-02T05:16:25.702Z,52.37
2023-04-02T05:17:25.683Z,52.53
2023-04-02T05:18:25.726Z,51.56
2023-04-02T05:19:25.628Z,50.76
2023-04-02T05:20:25.649Z,50.60
2023-04-02T05:21:25.604Z,52.21
2023-04-02T05:22:25.590Z,53.50
2023-04-02T05:23:25.577Z,52.85
2023-04-02T05:24:25.570Z,53.01
2023-04-02T05:25:25.567Z,53.33
2023-04-02T05:26:25.557Z,52.53
2023-04-02T05:27:25.531Z,53.82
2023-04-02T05:28:25.530Z,52.37
2023-04-02T05:29:25.511Z,52.69
2023-04-02T05:30:25.497Z,52.37
2023-04-02T05:31:25.566Z,53.66
2023-04-02T05:32:25.491Z,54.14
2023-04-02T05:33:25.465Z,53.17
2023-04-02T05:34:25.457Z,51.24
2023-04-02T05:35:25.448Z,52.37
2023-04-02T05:36:25.509Z,53.33
2023-04-02T05:37:25.437Z,53.33
2023-04-02T05:38:25.413Z,52.69
2023-04-02T05:39:25.412Z,53.17
2023-04-02T05:40:25.399Z,53.01
2023-04-02T05:41:25.381Z,52.21
2023-04-02T05:42:25.384Z,51.56
2023-04-02T05:43:25.356Z,51.72
2023-04-02T05:44:25.355Z,52.37
2023-04-02T05:45:25.328Z,53.66
2023-04-02T05:46:25.331Z,52.05
2023-04-02T05:47:25.356Z,53.33
2023-04-02T05:48:25.313Z,51.72
2023-04-02T05:49:25.281Z,52.37
2023-04-02T05:50:25.259Z,51.56
2023-04-02T05:51:25.265Z,51.24
2023-04-02T05:52:25.311Z,50.60
2023-04-02T05:53:25.245Z,53.82
2023-04-02T05:54:25.225Z,53.50
2023-04-02T05:55:26.856Z,52.53
2023-04-02T05:56:25.198Z,52.37
2023-04-02T05:57:39.401Z,53.66
2023-04-02T05:59:26.194Z,54.62
2023-04-02T06:00:25.178Z,52.37
2023-04-02T06:01:25.156Z,52.05
2023-04-02T06:02:25.235Z,54.14
2023-04-02T06:03:25.184Z,53.98
2023-04-02T06:04:25.591Z,53.50
2023-04-02T06:05:25.097Z,52.53
2023-04-02T06:06:25.091Z,52.85
2023-04-02T06:07:25.069Z,53.82
2023-04-02T06:08:25.089Z,54.14
2023-04-02T06:09:25.047Z,52.85
2023-04-02T06:10:25.106Z,51.88
2023-04-02T06:11:25.027Z,51.40
2023-04-02T06:12:25.021Z,53.17
2023-04-02T06:13:25.425Z,54.46
2023-04-02T06:14:25.008Z,52.37
2023-04-02T06:15:24.984Z,54.30
2023-04-02T06:16:24.998Z,52.69
2023-04-02T06:17:25.050Z,51.88
2023-04-02T06:18:24.966Z,52.53
2023-04-02T06:19:24.932Z,54.30
2023-04-02T06:20:24.941Z,52.85
2023-04-02T06:21:24.937Z,51.88
2023-04-02T06:22:24.896Z,52.85
2023-04-02T06:23:24.944Z,53.66
2023-04-02T06:24:24.956Z,54.14
2023-04-02T06:25:24.857Z,53.82
2023-04-02T06:26:24.861Z,53.01
2023-04-02T06:27:24.836Z,53.33
2023-04-02T06:28:25.876Z,52.53
2023-04-02T06:29:24.821Z,54.62
2023-04-02T06:30:24.809Z,53.17
2023-04-02T06:31:24.829Z,53.33
2023-04-02T06:32:24.820Z,53.33
2023-04-02T06:33:24.795Z,53.33
2023-04-02T06:34:24.777Z,52.69
2023-04-02T06:35:24.763Z,53.50
2023-04-02T06:36:24.831Z,52.85
2023-04-02T06:37:24.762Z,53.01
2023-04-02T06:38:24.740Z,53.17
2023-04-02T06:39:24.723Z,53.82
2023-04-02T06:40:24.707Z,52.69
2023-04-02T06:41:24.687Z,54.30
2023-04-02T06:42:24.667Z,54.62
2023-04-02T06:43:24.687Z,52.85
2023-04-02T06:44:24.677Z,53.82
2023-04-02T06:45:24.648Z,53.82
2023-04-02T06:46:24.689Z,54.14
2023-04-02T06:47:24.739Z,52.85
2023-04-02T06:48:24.615Z,54.62
2023-04-02T06:49:24.617Z,53.50
2023-04-02T06:50:24.587Z,53.66
2023-04-02T06:51:24.566Z,53.66
2023-04-02T06:52:24.566Z,54.14
2023-04-02T06:53:24.714Z,54.62
2023-04-02T06:54:24.588Z,53.98
2023-04-02T06:55:24.579Z,53.82
2023-04-02T06:56:24.522Z,53.66
2023-04-02T06:57:24.516Z,53.98
2023-04-02T06:58:24.517Z,54.30
2023-04-02T06:59:25.299Z,51.72
2023-04-02T07:00:24.455Z,52.85
2023-04-02T07:01:24.492Z,53.82
2023-04-02T07:02:24.452Z,53.50
2023-04-02T07:03:24.448Z,54.79
2023-04-02T07:04:24.497Z,53.82
2023-04-02T07:05:24.408Z,53.82
2023-04-02T07:06:24.420Z,54.62
2023-04-02T07:07:24.394Z,54.30
2023-04-02T07:08:25.191Z,54.14
2023-04-02T07:09:24.358Z,53.50
2023-04-02T07:10:24.387Z,54.14
2023-04-02T07:11:24.342Z,54.14
2023-04-02T07:12:24.328Z,54.30
2023-04-02T07:13:24.328Z,53.66
2023-04-02T07:14:24.336Z,55.11
2023-04-02T07:15:24.293Z,54.30
2023-04-02T07:16:24.328Z,53.17
2023-04-02T07:17:24.312Z,53.98
2023-04-02T07:18:24.283Z,53.33
2023-04-02T07:19:24.278Z,53.82
2023-04-02T07:20:24.309Z,53.33
2023-04-02T07:21:24.230Z,54.46
2023-04-02T07:22:24.243Z,52.69
2023-04-02T07:23:24.205Z,54.79
2023-04-02T07:24:24.186Z,55.43
2023-04-02T07:25:24.202Z,53.17
2023-04-02T07:26:24.161Z,53.66
2023-04-02T07:27:24.160Z,54.79
2023-04-02T07:28:24.191Z,53.98
2023-04-02T07:29:24.135Z,52.85
2023-04-02T07:30:24.154Z,52.21
2023-04-02T07:31:24.210Z,54.30
2023-04-02T07:32:24.087Z,52.69
2023-04-02T07:33:24.083Z,53.01
2023-04-02T07:34:24.073Z,55.27
2023-04-02T07:35:24.111Z,54.79
2023-04-02T07:36:24.079Z,53.50
2023-04-02T07:37:24.036Z,52.05
2023-04-02T07:38:24.046Z,53.98
2023-04-02T07:39:24.030Z,53.01
2023-04-02T07:40:24.090Z,54.30
2023-04-02T07:41:24.029Z,55.59
2023-04-02T07:42:24.019Z,55.59
2023-04-02T07:43:23.972Z,53.98
2023-04-02T07:44:23.981Z,55.43
2023-04-02T07:45:23.983Z,52.85
2023-04-02T07:46:23.985Z,53.82
2023-04-02T07:47:23.925Z,52.69
2023-04-02T07:48:23.929Z,53.50
2023-04-02T07:49:23.906Z,54.30
2023-04-02T07:50:23.880Z,54.62
2023-04-02T07:51:23.924Z,54.62
2023-04-02T07:52:23.859Z,54.79
2023-04-02T07:53:23.858Z,54.62
2023-04-02T07:54:23.833Z,53.50
2023-04-02T07:55:23.851Z,54.46
2023-04-02T07:56:23.882Z,54.62
2023-04-02T07:57:23.891Z,55.91
2023-04-02T07:58:23.803Z,53.82
2023-04-02T07:59:23.780Z,54.62
2023-04-02T08:00:23.798Z,54.46
2023-04-02T08:01:23.823Z,53.50
2023-04-02T08:02:23.831Z,54.30
2023-04-02T08:03:23.792Z,54.79
2023-04-02T08:04:23.760Z,53.98
2023-04-02T08:05:23.722Z,54.46
2023-04-02T08:06:23.828Z,54.62
2023-04-02T08:07:23.718Z,55.11
2023-04-02T08:08:23.870Z,54.30
2023-04-02T08:09:23.682Z,53.82
2023-04-02T08:10:23.666Z,55.11
2023-04-02T08:11:23.644Z,53.98
2023-04-02T08:12:23.669Z,55.43
2023-04-02T08:13:23.630Z,55.91
2023-04-02T08:14:23.591Z,55.43
2023-04-02T08:15:23.590Z,54.62
2023-04-02T08:16:23.612Z,54.95
2023-04-02T08:17:23.647Z,53.33
2023-04-02T08:18:23.572Z,53.66
2023-04-02T08:19:23.535Z,53.01
2023-04-02T08:20:23.520Z,54.46
2023-04-02T08:21:23.522Z,53.98
2023-04-02T08:22:23.524Z,55.43
2023-04-02T08:23:23.548Z,53.33
2023-04-02T08:24:23.489Z,53.66
2023-04-02T08:25:23.460Z,54.30
2023-04-02T08:26:23.454Z,54.62
2023-04-02T08:27:23.452Z,53.50
2023-04-02T08:28:23.523Z,54.14
2023-04-02T08:29:23.449Z,54.95
2023-04-02T08:30:23.427Z,54.62
2023-04-02T08:31:23.466Z,53.82
2023-04-02T08:32:23.410Z,54.30
2023-04-02T08:33:23.425Z,54.62
2023-04-02T08:34:23.361Z,53.98
2023-04-02T08:35:23.350Z,55.11
2023-04-02T08:36:23.375Z,55.59
2023-04-02T08:37:23.330Z,55.11
2023-04-02T08:38:23.333Z,55.75
2023-04-02T08:39:23.373Z,53.01
2023-04-02T08:40:23.311Z,53.50
2023-04-02T08:41:23.291Z,54.46
2023-04-02T08:42:23.268Z,54.46
2023-04-02T08:43:23.768Z,55.27
2023-04-02T08:44:23.300Z,53.82
2023-04-02T08:45:25.061Z,55.59
2023-04-02T08:46:25.281Z,54.62
2023-04-02T08:47:23.261Z,54.95
2023-04-02T08:48:23.215Z,55.75
2023-04-02T08:49:23.196Z,55.75
2023-04-02T08:50:23.207Z,56.07
2023-04-02T08:51:23.180Z,55.91
2023-04-02T08:52:23.246Z,55.91
2023-04-02T08:53:23.162Z,53.82
2023-04-02T08:54:23.131Z,54.79
2023-04-02T08:55:23.155Z,55.43
2023-04-02T08:56:23.121Z,55.11
2023-04-02T08:57:23.160Z,56.88
2023-04-02T08:58:23.394Z,54.79
2023-04-02T08:59:23.099Z,54.30
2023-04-02T09:00:23.110Z,55.75
2023-04-02T09:01:23.062Z,55.91
2023-04-02T09:02:23.123Z,56.72
2023-04-02T09:03:23.043Z,55.11
2023-04-02T09:04:23.083Z,55.75
2023-04-02T09:05:23.020Z,54.14
2023-04-02T09:06:23.027Z,55.75
2023-04-02T09:07:23.213Z,55.11
2023-04-02T09:08:22.961Z,53.33
2023-04-02T09:09:22.960Z,53.01
2023-04-02T09:10:22.956Z,53.33
2023-04-02T09:11:22.953Z,53.98
2023-04-02T09:12:22.915Z,54.62
2023-04-02T09:13:22.922Z,54.79
2023-04-02T09:14:22.896Z,54.79
2023-04-02T09:15:22.890Z,54.30
2023-04-02T09:16:22.972Z,54.30
2023-04-02T09:17:22.881Z,55.43
2023-04-02T09:18:22.949Z,54.30
2023-04-02T09:19:22.862Z,55.91
2023-04-02T09:20:22.833Z,54.46
2023-04-02T09:21:22.839Z,55.91
2023-04-02T09:22:22.841Z,53.66
2023-04-02T09:23:22.807Z,56.88
2023-04-02T09:24:22.808Z,54.79
2023-04-02T09:25:22.778Z,55.11
2023-04-02T09:26:22.755Z,54.62
2023-04-02T09:27:22.824Z,55.11
2023-04-02T09:28:22.759Z,55.11
2023-04-02T09:29:22.735Z,56.72
2023-04-02T09:30:22.717Z,54.62
2023-04-02T09:31:22.777Z,54.30
2023-04-02T09:32:22.733Z,56.07
2023-04-02T09:33:22.697Z,53.82
2023-04-02T09:34:22.693Z,55.59
2023-04-02T09:35:26.645Z,56.88
2023-04-02T09:36:23.669Z,55.27
2023-04-02T09:37:22.646Z,56.40
2023-04-02T09:38:22.647Z,55.59
2023-04-02T09:39:22.614Z,55.91
2023-04-02T09:40:22.610Z,55.91
2023-04-02T09:41:22.596Z,55.59
2023-04-02T09:42:22.596Z,56.24
2023-04-02T09:43:22.617Z,55.27
2023-04-02T09:44:22.567Z,54.46
2023-04-02T09:45:22.558Z,57.04
2023-04-02T09:46:22.591Z,57.36
2023-04-02T09:47:23.276Z,55.75
2023-04-02T09:48:22.550Z,54.62
2023-04-02T09:49:22.512Z,55.43
2023-04-02T09:50:22.491Z,55.11
2023-04-02T09:51:22.480Z,55.91
2023-04-02T09:52:22.462Z,56.72
2023-04-02T09:53:23.072Z,57.20
2023-04-02T09:54:22.466Z,56.88
2023-04-02T09:55:22.487Z,54.79
2023-04-02T09:56:22.415Z,57.36
2023-04-02T09:57:22.490Z,56.56
2023-04-02T09:58:22.405Z,56.72
2023-04-02T09:59:22.402Z,58.01
2023-04-02T10:00:31.459Z,58.17
2023-04-02T10:01:23.414Z,56.56
2023-04-02T10:02:22.921Z,55.43
2023-04-02T10:03:22.341Z,56.72
2023-04-02T10:04:24.419Z,58.33
2023-04-02T10:05:30.173Z,56.88
2023-04-02T10:06:23.302Z,54.46
2023-04-02T10:07:22.292Z,55.27
2023-04-02T10:08:22.284Z,56.07
2023-04-02T10:09:22.306Z,54.14
2023-04-02T10:10:23.906Z,54.30
2023-04-02T10:11:22.258Z,56.88
2023-04-02T10:12:22.236Z,57.36
2023-04-02T10:13:22.216Z,55.27
2023-04-02T10:14:22.221Z,55.27
2023-04-02T10:15:22.248Z,54.14
2023-04-02T10:16:23.347Z,56.72
2023-04-02T10:17:22.251Z,55.59
2023-04-02T10:18:22.158Z,56.07
2023-04-02T10:19:22.157Z,55.91
2023-04-02T10:20:22.241Z,55.59
2023-04-02T10:21:22.137Z,56.72
2023-04-02T10:22:23.137Z,57.69
2023-04-02T10:23:22.123Z,56.07
2023-04-02T10:24:22.110Z,57.04
2023-04-02T10:25:22.092Z,55.59
2023-04-02T10:26:22.088Z,54.95
2023-04-02T10:27:22.073Z,54.14
2023-04-02T10:28:22.054Z,56.40
2023-04-02T10:29:57.424Z,58.49
2023-04-02T10:30:22.508Z,56.88
2023-04-02T10:31:22.827Z,57.36
2023-04-02T10:32:24.898Z,57.52
2023-04-02T10:33:22.089Z,56.88
2023-04-02T10:34:22.014Z,57.20
2023-04-02T10:35:22.043Z,58.97
2023-04-02T10:36:22.045Z,58.33
2023-04-02T10:37:22.026Z,58.65
2023-04-02T10:38:21.965Z,56.56
2023-04-02T10:39:21.955Z,57.69
2023-04-02T10:40:21.985Z,58.17
2023-04-02T10:41:22.857Z,57.52
2023-04-02T10:42:21.956Z,57.69
2023-04-02T10:43:21.900Z,54.95
2023-04-02T10:44:21.979Z,57.36
2023-04-02T10:45:21.965Z,57.69
2023-04-02T10:46:24.465Z,56.40
2023-04-02T10:47:21.899Z,57.69
2023-04-02T10:48:21.863Z,58.33
2023-04-02T10:49:21.914Z,59.94
2023-04-02T10:50:21.865Z,58.01
2023-04-02T10:51:21.863Z,57.69
2023-04-02T10:52:22.884Z,57.69
2023-04-02T10:53:21.892Z,58.81
2023-04-02T10:54:21.791Z,57.85
2023-04-02T10:55:21.791Z,58.49
2023-04-02T10:56:21.765Z,57.85
2023-04-02T10:57:21.899Z,57.52
2023-04-02T10:58:21.782Z,57.04
2023-04-02T10:59:21.720Z,58.65
2023-04-02T11:00:21.883Z,56.56
2023-04-02T11:01:21.693Z,57.20
2023-04-02T11:02:21.683Z,58.97
2023-04-02T11:03:21.802Z,58.17
2023-04-02T11:04:21.698Z,57.52
2023-04-02T11:05:21.648Z,57.69
2023-04-02T11:06:21.657Z,55.43
2023-04-02T11:07:21.623Z,55.75
2023-04-02T11:08:21.710Z,56.40
2023-04-02T11:09:21.632Z,57.04
2023-04-02T11:10:21.583Z,55.91
2023-04-02T11:11:21.661Z,56.56
2023-04-02T11:12:21.593Z,56.24
2023-04-02T11:13:21.653Z,56.88
2023-04-02T11:14:21.563Z,55.27
2023-04-02T11:15:22.603Z,57.20
2023-04-02T11:16:21.580Z,56.40
2023-04-02T11:17:21.557Z,56.88
2023-04-02T11:18:21.519Z,56.72
2023-04-02T11:19:21.526Z,57.85
2023-04-02T11:20:21.509Z,57.20
2023-04-02T11:21:21.530Z,55.43
2023-04-02T11:22:21.513Z,58.17
2023-04-02T11:23:21.448Z,57.36
2023-04-02T11:24:21.520Z,55.43
2023-04-02T11:25:21.537Z,56.40
2023-04-02T11:26:22.448Z,57.20
2023-04-02T11:27:21.420Z,56.88
2023-04-02T11:28:21.927Z,57.20
2023-04-02T11:29:21.386Z,56.72
2023-04-02T11:30:21.416Z,57.04
2023-04-02T11:31:21.397Z,57.20
2023-04-02T11:32:21.378Z,55.91
2023-04-02T11:33:30.062Z,56.88
2023-04-02T11:34:21.523Z,56.88
2023-04-02T11:35:21.343Z,58.01
2023-04-02T11:36:21.997Z,58.01
2023-04-02T11:37:22.738Z,56.56
2023-04-02T11:38:22.117Z,56.72
2023-04-02T11:39:22.257Z,55.43
2023-04-02T11:40:22.086Z,58.33
2023-04-02T11:41:21.275Z,55.43
2023-04-02T11:42:23.764Z,57.36
2023-04-02T11:43:22.735Z,57.20
2023-04-02T11:44:22.198Z,56.88
2023-04-02T11:45:21.394Z,59.46
2023-04-02T11:46:21.486Z,56.88
2023-04-02T11:47:22.184Z,59.14
2023-04-02T11:48:21.149Z,58.17
2023-04-02T11:49:22.237Z,57.69
2023-04-02T11:50:21.222Z,56.72
2023-04-02T11:51:21.379Z,58.49
2023-04-02T11:52:22.160Z,59.94
2023-04-02T11:53:21.139Z,60.42
2023-04-02T11:54:21.105Z,57.52
2023-04-02T11:55:21.132Z,56.88
2023-04-02T11:56:21.319Z,56.88
2023-04-02T11:57:21.667Z,56.56
2023-04-02T11:58:22.104Z,57.04
2023-04-02T11:59:21.022Z,56.72
2023-04-02T12:00:21.017Z,57.69
2023-04-02T12:01:21.001Z,57.85
2023-04-02T12:02:21.125Z,58.01
2023-04-02T12:03:21.156Z,57.52
2023-04-02T12:04:20.987Z,56.56
2023-04-02T12:05:21.113Z,55.91
2023-04-02T12:06:20.962Z,57.20
2023-04-02T12:07:21.358Z,54.79
2023-04-02T12:08:20.945Z,55.27
2023-04-02T12:09:20.934Z,57.85
2023-04-02T12:10:20.923Z,57.69
2023-04-02T12:11:22.401Z,56.88
2023-04-02T12:12:22.273Z,56.72
2023-04-02T12:13:25.059Z,59.94
2023-04-02T12:14:21.234Z,55.59
2023-04-02T12:15:21.811Z,56.88
2023-04-02T12:16:21.750Z,54.30
2023-04-02T12:17:20.970Z,55.91
2023-04-02T12:18:20.885Z,56.40
2023-04-02T12:19:21.270Z,55.11
2023-04-02T12:20:21.719Z,56.72
2023-04-02T12:21:20.844Z,55.27
2023-04-02T12:22:20.772Z,55.43
2023-04-02T12:23:20.781Z,55.59
2023-04-02T12:24:20.926Z,56.72
2023-04-02T12:25:21.290Z,55.11
2023-04-02T12:26:23.053Z,54.79
2023-04-02T12:30:08.214Z,55.11
2023-04-02T12:31:08.092Z,56.40
2023-04-02T12:32:08.029Z,56.07
2023-04-02T12:33:08.103Z,56.56
2023-04-02T12:34:07.991Z,57.04
2023-04-02T12:35:07.988Z,56.72
2023-04-02T12:36:07.971Z,57.20
2023-04-02T12:37:08.008Z,55.43
2023-04-02T12:38:18.337Z,56.88
2023-04-02T12:39:08.226Z,56.24
2023-04-02T12:40:08.132Z,56.24
2023-04-02T12:41:07.903Z,54.95
2023-04-02T12:42:07.865Z,54.62
2023-04-02T12:43:07.859Z,54.95
2023-04-02T12:44:07.868Z,55.43
2023-04-02T12:45:07.866Z,58.01
2023-04-02T12:46:07.890Z,55.59
2023-04-02T12:47:07.846Z,56.56
2023-04-02T12:48:07.879Z,58.17
2023-04-02T12:49:07.779Z,57.04
2023-04-02T12:50:07.800Z,55.59
2023-04-02T12:51:07.757Z,55.75
2023-04-02T12:52:07.799Z,57.36
2023-04-02T12:53:07.782Z,56.24
2023-04-02T12:54:07.718Z,56.72
2023-04-02T12:55:07.811Z,55.59
2023-04-02T12:56:07.729Z,56.56
2023-04-02T12:57:07.791Z,57.04
2023-04-02T12:58:07.672Z,55.43
2023-04-02T12:59:07.723Z,56.24
2023-04-02T13:00:07.668Z,55.91
2023-04-02T13:07:34.183Z,57.20
2023-04-02T13:08:34.909Z,56.72
2023-04-02T13:09:34.171Z,57.85
2023-04-02T13:10:34.241Z,57.04
2023-04-02T13:11:34.036Z,55.91
2023-04-02T13:12:34.030Z,56.07
2023-04-02T13:13:34.016Z,57.20
2023-04-02T13:14:33.983Z,55.91
2023-04-02T13:15:34.278Z,57.04
2023-04-02T13:16:34.034Z,56.24
2023-04-02T13:17:33.964Z,55.91
2023-04-02T13:18:33.932Z,54.79
2023-04-02T13:19:34.013Z,54.79
2023-04-02T13:20:34.132Z,55.11
2023-04-02T13:21:33.929Z,54.79
2023-04-02T13:22:33.881Z,57.85
2023-04-02T13:23:33.878Z,56.88
2023-04-02T13:24:33.875Z,56.88
2023-04-02T13:25:33.843Z,56.40
2023-04-02T13:26:33.850Z,56.24
2023-04-02T13:27:33.889Z,57.36
2023-04-02T13:28:33.808Z,55.43